createdAt,value
2022-07-29T00:02:16.027Z,98202.50
2022-07-29T00:04:42.716Z,98202.59
2022-07-29T00:07:09.446Z,98200.78
2022-07-29T00:09:50.355Z,98195.50
2022-07-29T00:12:25.282Z,98199.38
2022-07-29T00:14:53.488Z,98196.06
2022-07-29T00:17:20.061Z,98188.16
2022-07-29T00:19:46.622Z,98190.53
2022-07-29T00:22:13.170Z,98198.31
2022-07-29T00:24:39.711Z,98194.19
2022-07-29T00:27:07.143Z,98194.84
2022-07-29T00:29:34.854Z,98190.22
2022-07-29T00:32:02.647Z,98186.78
2022-07-29T00:34:47.655Z,98185.28
2022-07-29T00:37:14.165Z,98180.75
2022-07-29T00:39:40.733Z,98171.84
2022-07-29T00:42:07.440Z,98171.19
2022-07-29T00:44:38.977Z,98170.72
2022-07-29T00:47:05.860Z,98175.72
2022-07-29T00:49:33.289Z,98182.25
2022-07-29T00:52:03.185Z,98179.13
2022-07-29T00:54:30.144Z,98177.19
2022-07-29T00:56:59.334Z,98182.09
2022-07-29T00:59:34.476Z,98181.66
2022-07-29T01:02:03.379Z,98176.50
2022-07-29T01:04:31.886Z,98181.88
2022-07-29T01:06:59.590Z,98181.13
2022-07-29T01:09:42.775Z,98185.84
2022-07-29T01:12:17.597Z,98186.91
2022-07-29T01:14:45.558Z,98183.25
2022-07-29T01:17:18.784Z,98193.06
2022-07-29T01:20:00.520Z,98181.00
2022-07-29T01:22:43.508Z,98178.53
2022-07-29T01:25:25.930Z,98181.00
2022-07-29T01:28:00.862Z,98182.31
2022-07-29T01:30:33.400Z,98192.75
2022-07-29T01:33:04.087Z,98187.13
2022-07-29T01:35:39.219Z,98196.75
2022-07-29T01:38:20.573Z,98186.09
2022-07-29T01:41:17.321Z,98190.16
2022-07-29T01:43:59.157Z,98190.75
2022-07-29T01:46:31.641Z,98190.75
2022-07-29T01:49:07.004Z,98181.91
2022-07-29T01:51:53.816Z,98183.00
2022-07-29T01:54:38.271Z,98184.06
2022-07-29T01:57:07.857Z,98187.47
2022-07-29T01:59:37.177Z,98182.97
2022-07-29T02:02:04.064Z,98179.84
2022-07-29T02:04:33.141Z,98185.28
2022-07-29T02:07:03.197Z,98178.78
2022-07-29T02:09:31.147Z,98180.31
2022-07-29T02:12:00.292Z,98182.91
2022-07-29T02:14:32.181Z,98178.41
2022-07-29T02:17:01.441Z,98185.50
2022-07-29T02:19:30.011Z,98176.88
2022-07-29T02:21:58.662Z,98181.44
2022-07-29T02:24:26.894Z,98189.50
2022-07-29T02:26:55.926Z,98188.16
2022-07-29T02:29:24.526Z,98189.44
2022-07-29T02:31:52.521Z,98198.25
2022-07-29T02:34:21.683Z,98190.47
2022-07-29T02:36:50.397Z,98197.09
2022-07-29T02:39:18.625Z,98200.84
2022-07-29T02:41:48.709Z,98195.94
2022-07-29T02:44:18.610Z,98192.59
2022-07-29T02:47:20.023Z,98188.38
2022-07-29T02:50:09.331Z,98182.59
2022-07-29T02:52:37.685Z,98189.09
2022-07-29T02:55:19.564Z,98188.53
2022-07-29T02:57:55.861Z,98191.53
2022-07-29T03:00:28.205Z,98198.63
2022-07-29T03:02:57.275Z,98199.50
2022-07-29T03:05:24.660Z,98193.34
2022-07-29T03:07:58.136Z,98201.59
2022-07-29T03:10:27.215Z,98199.00
2022-07-29T03:12:55.734Z,98202.84
2022-07-29T03:15:23.364Z,98207.41
2022-07-29T03:17:53.778Z,98208.72
2022-07-29T03:20:20.718Z,98199.13
2022-07-29T03:22:50.051Z,98204.13
2022-07-29T03:25:18.716Z,98205.25
2022-07-29T03:27:46.321Z,98206.56
2022-07-29T03:30:22.007Z,98201.38
2022-07-29T03:32:52.089Z,98206.25
2022-07-29T03:35:20.383Z,98208.19
2022-07-29T03:37:47.253Z,98217.09
2022-07-29T03:40:19.144Z,98219.88
2022-07-29T03:42:47.727Z,98218.06
2022-07-29T03:45:19.066Z,98216.72
2022-07-29T03:47:52.876Z,98214.09
2022-07-29T03:50:22.755Z,98218.78
2022-07-29T03:52:49.955Z,98218.84
2022-07-29T03:55:17.289Z,98211.25
2022-07-29T03:57:45.987Z,98218.66
2022-07-29T04:00:13.234Z,98219.72
2022-07-29T04:02:40.909Z,98214.34
2022-07-29T04:05:13.084Z,98221.41
2022-07-29T04:07:39.711Z,98219.72
2022-07-29T04:10:06.911Z,98219.03
2022-07-29T04:12:33.497Z,98219.59
2022-07-29T04:15:00.045Z,98224.44
2022-07-29T04:17:26.572Z,98218.22
2022-07-29T04:19:53.120Z,98222.19
2022-07-29T04:22:19.632Z,98231.03
2022-07-29T04:24:46.219Z,98225.31
2022-07-29T04:27:12.909Z,98233.25
2022-07-29T04:29:56.603Z,98230.31
2022-07-29T04:32:24.773Z,98229.00
2022-07-29T04:34:51.490Z,98228.88
2022-07-29T04:37:18.181Z,98230.78
2022-07-29T04:39:44.731Z,98239.47
2022-07-29T04:42:11.316Z,98235.81
2022-07-29T04:44:39.453Z,98233.94
2022-07-29T04:47:09.639Z,98235.72
2022-07-29T04:49:38.986Z,98232.22
2022-07-29T04:52:06.398Z,98233.16
2022-07-29T04:54:33.056Z,98232.81
2022-07-29T04:56:59.580Z,98239.31
2022-07-29T04:59:27.581Z,98237.03
2022-07-29T05:01:54.315Z,98240.47
2022-07-29T05:04:21.120Z,98245.47
2022-07-29T05:06:48.493Z,98238.31
2022-07-29T05:09:15.145Z,98238.94
2022-07-29T05:11:41.688Z,98238.84
2022-07-29T05:14:08.218Z,98243.34
2022-07-29T05:16:34.793Z,98245.22
2022-07-29T05:19:01.684Z,98244.13
2022-07-29T05:23:54.987Z,98240.66
2022-07-29T05:26:21.562Z,98239.25
2022-07-29T05:28:48.169Z,98226.22
2022-07-29T05:31:15.581Z,98232.19
2022-07-29T05:33:42.543Z,98234.13
2022-07-29T05:36:09.622Z,98238.00
2022-07-29T05:38:36.950Z,98241.78
2022-07-29T05:41:04.461Z,98240.22
2022-07-29T05:43:31.188Z,98237.69
2022-07-29T05:45:58.088Z,98242.81
2022-07-29T05:48:25.582Z,98235.47
2022-07-29T05:50:52.316Z,98240.28
2022-07-29T05:53:20.587Z,98245.44
2022-07-29T05:55:49.744Z,98246.91
2022-07-29T05:58:16.369Z,98242.22
2022-07-29T06:00:42.963Z,98234.28
2022-07-29T06:03:09.593Z,98229.78
2022-07-29T06:05:36.288Z,98235.25
2022-07-29T06:08:03.206Z,98225.16
2022-07-29T06:10:29.877Z,98225.78
2022-07-29T06:12:56.497Z,98223.63
2022-07-29T06:15:23.159Z,98231.56
2022-07-29T06:17:59.750Z,98230.69
2022-07-29T06:20:31.983Z,98232.41
2022-07-29T06:22:59.039Z,98230.13
2022-07-29T06:25:25.706Z,98228.16
2022-07-29T06:27:53.254Z,98234.84
2022-07-29T06:30:19.832Z,98235.47
2022-07-29T06:32:46.525Z,98233.91
2022-07-29T06:35:37.862Z,98231.06
2022-07-29T06:38:00.018Z,98237.34
2022-07-29T06:40:46.183Z,98241.09
2022-07-29T06:43:12.809Z,98242.06
2022-07-29T06:45:42.045Z,98239.47
2022-07-29T06:48:09.576Z,98239.19
2022-07-29T06:50:36.435Z,98236.66
2022-07-29T06:53:03.168Z,98226.56
2022-07-29T06:55:29.747Z,98223.97
2022-07-29T06:57:56.304Z,98223.50
2022-07-29T07:00:23.018Z,98230.69
2022-07-29T07:02:49.641Z,98222.28
2022-07-29T07:05:16.269Z,98224.25
2022-07-29T07:07:42.869Z,98228.66
2022-07-29T07:10:09.686Z,98231.91
2022-07-29T07:12:36.297Z,98230.47
2022-07-29T07:15:03.288Z,98227.94
2022-07-29T07:17:29.863Z,98231.16
2022-07-29T07:19:56.420Z,98226.09
2022-07-29T07:22:23.019Z,98220.78
2022-07-29T07:24:49.581Z,98222.28
2022-07-29T07:27:16.127Z,98227.06
2022-07-29T07:29:44.472Z,98219.78
2022-07-29T07:32:11.357Z,98221.59
2022-07-29T07:34:38.958Z,98227.34
2022-07-29T07:37:06.277Z,98231.22
2022-07-29T07:39:32.937Z,98232.56
2022-07-29T07:41:59.813Z,98227.00
2022-07-29T07:44:26.473Z,98229.09
2022-07-29T07:46:53.339Z,98225.03
2022-07-29T07:49:21.591Z,98226.50
2022-07-29T07:51:50.821Z,98218.00
2022-07-29T07:54:20.517Z,98228.19
2022-07-29T07:56:49.866Z,98210.41
2022-07-29T07:59:19.598Z,98223.38
2022-07-29T08:01:47.981Z,98224.44
2022-07-29T08:04:27.295Z,98223.63
2022-07-29T08:06:57.786Z,98227.16
2022-07-29T08:09:29.875Z,98232.56
2022-07-29T08:11:59.173Z,98230.22
2022-07-29T08:14:26.070Z,98240.53
2022-07-29T08:16:52.751Z,98242.13
2022-07-29T08:19:19.592Z,98243.94
2022-07-29T08:21:46.470Z,98240.13
2022-07-29T08:24:31.634Z,98246.03
2022-07-29T08:26:58.201Z,98239.31
2022-07-29T08:29:24.962Z,98232.69
2022-07-29T08:31:51.892Z,98233.09
2022-07-29T08:34:18.821Z,98233.97
2022-07-29T08:36:52.642Z,98230.16
2022-07-29T08:39:19.358Z,98232.13
2022-07-29T08:41:56.695Z,98232.75
2022-07-29T08:44:29.602Z,98237.53
2022-07-29T08:46:57.704Z,98234.06
2022-07-29T08:49:24.435Z,98230.13
2022-07-29T08:51:52.431Z,98230.63
2022-07-29T08:54:20.759Z,98236.06
2022-07-29T08:56:50.889Z,98234.09
2022-07-29T08:59:21.857Z,98231.78
2022-07-29T09:01:53.115Z,98230.06
2022-07-29T09:04:21.984Z,98232.84
2022-07-29T09:06:52.190Z,98225.63
2022-07-29T09:09:18.909Z,98224.97
2022-07-29T09:11:45.603Z,98227.34
2022-07-29T09:14:14.377Z,98227.34
2022-07-29T09:16:57.449Z,98227.63
2022-07-29T09:19:27.077Z,98224.63
2022-07-29T09:22:03.026Z,98221.94
2022-07-29T09:24:45.359Z,98228.75
2022-07-29T09:27:23.013Z,98210.94
2022-07-29T09:30:11.556Z,98219.72
2022-07-29T09:32:59.909Z,98210.97
2022-07-29T09:35:27.248Z,98222.13
2022-07-29T09:37:53.888Z,98213.94
2022-07-29T09:40:26.015Z,98220.09
2022-07-29T09:42:54.145Z,98212.81
2022-07-29T09:45:48.336Z,98213.63
2022-07-29T09:48:26.013Z,98215.16
2022-07-29T09:50:53.479Z,98203.78
2022-07-29T09:53:34.490Z,98212.22
2022-07-29T09:56:01.789Z,98209.75
2022-07-29T09:58:28.796Z,98204.34
2022-07-29T10:00:56.618Z,98196.56
2022-07-29T10:03:24.019Z,98209.56
2022-07-29T10:06:10.865Z,98202.38
2022-07-29T10:08:38.661Z,98210.16
2022-07-29T10:11:11.596Z,98201.78
2022-07-29T10:13:39.075Z,98207.78
2022-07-29T10:16:06.793Z,98203.00
2022-07-29T10:18:34.105Z,98201.69
2022-07-29T10:21:02.090Z,98190.59
2022-07-29T10:23:30.687Z,98195.88
2022-07-29T10:26:14.009Z,98201.13
2022-07-29T10:28:40.612Z,98193.63
2022-07-29T10:31:14.727Z,98193.22
2022-07-29T10:34:18.449Z,98195.59
2022-07-29T10:37:01.051Z,98201.06
2022-07-29T10:39:49.736Z,98204.00
2022-07-29T10:42:33.915Z,98209.94
2022-07-29T10:45:02.759Z,98208.59
2022-07-29T10:47:31.760Z,98218.00
2022-07-29T10:50:03.640Z,98205.78
2022-07-29T10:52:53.510Z,98209.91
2022-07-29T10:55:45.479Z,98201.75
2022-07-29T10:58:19.008Z,98198.25
2022-07-29T11:00:51.169Z,98198.72
2022-07-29T11:03:52.207Z,98215.13
2022-07-29T11:06:26.710Z,98196.94
2022-07-29T11:09:25.786Z,98202.84
2022-07-29T11:12:02.640Z,98201.97
2022-07-29T11:14:59.934Z,98207.09
2022-07-29T11:17:26.946Z,98202.13
2022-07-29T11:20:32.073Z,98209.16
2022-07-29T11:22:59.425Z,98204.88
2022-07-29T11:25:42.581Z,98208.38
2022-07-29T11:28:23.178Z,98204.59
2022-07-29T11:30:54.504Z,98208.34
2022-07-29T11:33:54.125Z,98207.13
2022-07-29T11:36:16.883Z,98209.22
2022-07-29T11:38:43.639Z,98201.63
2022-07-29T11:41:21.383Z,98216.66
2022-07-29T11:43:52.282Z,98218.34
2022-07-29T11:46:47.740Z,98219.84
2022-07-29T11:49:21.859Z,98206.06
2022-07-29T11:51:55.996Z,98205.41
2022-07-29T11:54:50.896Z,98208.81
2022-07-29T11:57:22.696Z,98212.16
2022-07-29T11:59:49.633Z,98217.34
2022-07-29T12:02:37.304Z,98213.69
2022-07-29T12:05:10.418Z,98212.63
2022-07-29T12:07:39.314Z,98212.13
2022-07-29T12:10:11.481Z,98212.34
2022-07-29T12:12:52.572Z,98209.63
2022-07-29T12:15:21.522Z,98205.00
2022-07-29T12:17:49.433Z,98204.25
2022-07-29T12:20:28.369Z,98207.97
2022-07-29T12:22:56.883Z,98218.50
2022-07-29T12:25:33.792Z,98211.38
2022-07-29T12:28:02.715Z,98214.56
2022-07-29T12:30:55.758Z,98213.22
2022-07-29T12:33:25.250Z,98207.97
2022-07-29T12:36:12.797Z,98203.59
2022-07-29T12:38:44.027Z,98203.38
2022-07-29T12:41:11.483Z,98210.31
2022-07-29T12:43:38.099Z,98211.72
2022-07-29T12:46:15.683Z,98215.31
2022-07-29T12:48:44.620Z,98218.84
2022-07-29T12:51:13.308Z,98200.75
2022-07-29T12:53:40.145Z,98204.81
2022-07-29T12:56:41.384Z,98198.81
2022-07-29T12:59:12.786Z,98197.31
2022-07-29T13:01:39.447Z,98204.50
2022-07-29T13:04:06.275Z,98199.78
2022-07-29T13:06:51.025Z,98205.88
2022-07-29T13:09:20.027Z,98206.13
2022-07-29T13:11:49.113Z,98201.66
2022-07-29T13:14:38.821Z,98206.88
2022-07-29T13:17:09.878Z,98205.75
2022-07-29T13:19:45.540Z,98208.50
2022-07-29T13:22:14.803Z,98201.28
2022-07-29T13:25:02.932Z,98213.84
2022-07-29T13:27:33.060Z,98211.72
2022-07-29T13:30:01.364Z,98210.44
2022-07-29T13:32:29.628Z,98209.53
2022-07-29T13:34:57.931Z,98209.44
2022-07-29T13:37:25.208Z,98210.56
2022-07-29T13:39:53.380Z,98207.44
2022-07-29T13:42:20.605Z,98214.97
2022-07-29T13:44:47.251Z,98215.91
2022-07-29T13:47:13.857Z,98216.50
2022-07-29T13:49:40.485Z,98210.72
2022-07-29T13:52:08.309Z,98212.38
2022-07-29T13:54:42.084Z,98214.59
2022-07-29T13:57:11.484Z,98211.84
2022-07-29T13:59:38.297Z,98211.66
2022-07-29T14:02:05.918Z,98201.34
2022-07-29T14:04:33.378Z,98201.72
2022-07-29T14:07:00.060Z,98202.84
2022-07-29T14:09:41.084Z,98207.22
2022-07-29T14:12:09.337Z,98201.00
2022-07-29T14:14:37.315Z,98211.63
2022-07-29T14:17:04.334Z,98196.22
2022-07-29T14:19:32.918Z,98211.38
2022-07-29T14:21:59.908Z,98202.69
2022-07-29T14:24:26.823Z,98213.94
2022-07-29T14:26:53.448Z,98202.16
2022-07-29T14:29:20.089Z,98202.78
2022-07-29T14:31:46.731Z,98189.25
2022-07-29T14:34:13.413Z,98199.81
2022-07-29T14:36:40.000Z,98198.69
2022-07-29T14:39:06.572Z,98201.94
2022-07-29T14:41:33.777Z,98184.81
2022-07-29T14:44:02.894Z,98194.53
2022-07-29T14:46:29.523Z,98184.56
2022-07-29T14:48:56.224Z,98186.44
2022-07-29T14:51:22.842Z,98187.31
2022-07-29T14:53:49.428Z,98190.44
2022-07-29T14:56:36.165Z,98201.34
2022-07-29T14:59:02.732Z,98188.91
2022-07-29T15:01:30.094Z,98200.34
2022-07-29T15:03:59.706Z,98195.91
2022-07-29T15:06:27.499Z,98190.25
2022-07-29T15:08:54.820Z,98189.03
2022-07-29T15:11:21.382Z,98200.50
2022-07-29T15:13:47.937Z,98203.41
2022-07-29T15:16:14.549Z,98190.75
2022-07-29T15:18:41.214Z,98195.78
2022-07-29T15:21:08.359Z,98189.38
2022-07-29T15:23:38.486Z,98191.72
2022-07-29T15:26:05.273Z,98193.13
2022-07-29T15:28:31.974Z,98195.38
2022-07-29T15:30:59.306Z,98186.69
2022-07-29T15:33:26.541Z,98193.38
2022-07-29T15:35:53.140Z,98185.53
2022-07-29T15:38:19.739Z,98195.59
2022-07-29T15:40:55.096Z,98197.28
2022-07-29T15:43:21.632Z,98197.78
2022-07-29T15:46:07.422Z,98197.09
2022-07-29T15:48:34.258Z,98200.34
2022-07-29T15:51:01.042Z,98193.53
2022-07-29T15:53:27.743Z,98198.31
2022-07-29T15:55:54.340Z,98194.38
2022-07-29T15:58:21.096Z,98190.41
2022-07-29T16:00:47.829Z,98186.56
2022-07-29T16:03:14.807Z,98186.94
2022-07-29T16:05:41.646Z,98185.81
2022-07-29T16:08:08.531Z,98188.91
2022-07-29T16:10:35.057Z,98194.38
2022-07-29T16:13:01.722Z,98193.16
2022-07-29T16:15:28.257Z,98195.03
2022-07-29T16:17:54.835Z,98203.91
2022-07-29T16:20:22.361Z,98194.50
2022-07-29T16:22:49.236Z,98195.19
2022-07-29T16:25:15.842Z,98191.44
2022-07-29T16:27:42.523Z,98191.81
2022-07-29T16:30:12.311Z,98185.97
2022-07-29T16:32:39.740Z,98179.69
2022-07-29T16:35:07.538Z,98182.03
2022-07-29T16:37:36.436Z,98182.22
2022-07-29T16:40:04.793Z,98185.81
2022-07-29T16:42:46.011Z,98190.44
2022-07-29T16:45:13.478Z,98186.69
2022-07-29T16:47:40.510Z,98198.81
2022-07-29T16:50:07.768Z,98205.28
2022-07-29T16:52:34.428Z,98218.84
2022-07-29T16:55:00.951Z,98221.44
2022-07-29T16:57:27.508Z,98212.94
2022-07-29T16:59:54.058Z,98209.31
2022-07-29T17:02:20.684Z,98210.56
2022-07-29T17:04:47.367Z,98218.25
2022-07-29T17:07:14.196Z,98222.75
2022-07-29T17:09:41.112Z,98222.84
2022-07-29T17:12:08.019Z,98232.88
2022-07-29T17:14:34.645Z,98232.41
2022-07-29T17:17:02.491Z,98232.22
2022-07-29T17:19:32.781Z,98237.91
2022-07-29T17:22:12.987Z,98242.97
2022-07-29T17:24:42.615Z,98245.69
2022-07-29T17:27:10.239Z,98249.66
2022-07-29T17:29:38.606Z,98242.22
2022-07-29T17:32:07.423Z,98239.03
2022-07-29T17:34:35.730Z,98237.06
2022-07-29T17:37:02.329Z,98244.06
2022-07-29T17:39:29.032Z,98238.72
2022-07-29T17:41:55.731Z,98247.03
2022-07-29T17:44:22.268Z,98247.28
2022-07-29T17:46:48.972Z,98245.63
2022-07-29T17:49:15.618Z,98253.38
2022-07-29T17:51:42.213Z,98252.78
2022-07-29T17:54:08.765Z,98254.50
2022-07-29T17:56:35.423Z,98249.97
2022-07-29T17:59:06.393Z,98256.50
2022-07-29T18:01:33.725Z,98255.34
2022-07-29T18:04:00.586Z,98262.94
2022-07-29T18:06:27.162Z,98257.69
2022-07-29T18:08:54.319Z,98270.00
2022-07-29T18:11:21.685Z,98272.53
2022-07-29T18:13:48.268Z,98272.72
2022-07-29T18:16:15.040Z,98267.59
2022-07-29T18:18:43.339Z,98278.53
2022-07-29T18:21:09.980Z,98281.44
2022-07-29T18:23:36.585Z,98295.16
2022-07-29T18:26:03.376Z,98311.50
2022-07-29T18:28:30.040Z,98311.09
2022-07-29T18:30:57.840Z,98312.28
2022-07-29T18:33:24.461Z,98315.16
2022-07-29T18:36:10.821Z,98326.44
2022-07-29T18:38:40.061Z,98323.47
2022-07-29T18:41:06.876Z,98330.91
2022-07-29T18:43:33.434Z,98332.75
2022-07-29T18:46:00.005Z,98325.59
2022-07-29T18:48:26.860Z,98340.88
2022-07-29T18:50:53.496Z,98344.00
2022-07-29T18:53:20.129Z,98347.84
2022-07-29T18:55:46.700Z,98350.84
2022-07-29T18:58:13.289Z,98360.66
2022-07-29T19:00:39.818Z,98361.75
2022-07-29T19:03:08.255Z,98369.78
2022-07-29T19:05:34.955Z,98369.31
2022-07-29T19:08:01.595Z,98378.81
2022-07-29T19:10:28.303Z,98374.66
2022-07-29T19:12:55.244Z,98381.19
2022-07-29T19:15:21.797Z,98386.28
2022-07-29T19:17:48.864Z,98393.53
2022-07-29T19:20:15.906Z,98393.06
2022-07-29T19:22:42.655Z,98398.78
2022-07-29T19:25:10.012Z,98396.34
2022-07-29T19:27:36.802Z,98404.94
2022-07-29T19:30:06.389Z,98405.31
2022-07-29T19:32:33.113Z,98410.88
2022-07-29T19:35:18.231Z,98414.38
2022-07-29T19:37:44.807Z,98423.63
2022-07-29T19:40:12.517Z,98426.50
2022-07-29T19:42:39.450Z,98436.00
2022-07-29T19:45:06.539Z,98442.06
2022-07-29T19:47:33.121Z,98445.03
2022-07-29T19:50:00.628Z,98452.94
2022-07-29T19:52:27.595Z,98452.84
2022-07-29T19:54:54.355Z,98453.13
2022-07-29T19:57:20.896Z,98457.84
2022-07-29T19:59:47.482Z,98453.25
2022-07-29T20:02:14.202Z,98459.66
2022-07-29T20:04:42.698Z,98466.56
2022-07-29T20:07:09.417Z,98466.22
2022-07-29T20:09:36.289Z,98460.28
2022-07-29T20:12:04.663Z,98470.50
2022-07-29T20:14:31.194Z,98472.34
2022-07-29T20:16:57.747Z,98472.59
2022-07-29T20:19:24.428Z,98476.53
2022-07-29T20:21:51.421Z,98481.63
2022-07-29T20:24:19.333Z,98484.72
2022-07-29T20:26:46.759Z,98480.66
2022-07-29T20:29:13.617Z,98490.72
2022-07-29T20:31:40.518Z,98494.31
2022-07-29T20:34:07.114Z,98488.75
2022-07-29T20:36:33.648Z,98493.69
2022-07-29T20:39:00.323Z,98494.91
2022-07-29T20:41:26.965Z,98494.53
2022-07-29T20:43:53.491Z,98502.97
2022-07-29T20:46:20.083Z,98496.19
2022-07-29T20:48:47.256Z,98508.88
2022-07-29T20:51:14.424Z,98511.06
2022-07-29T20:53:41.109Z,98506.13
2022-07-29T20:56:07.948Z,98517.28
2022-07-29T20:58:36.231Z,98511.50
2022-07-29T21:01:04.033Z,98516.34
2022-07-29T21:03:30.690Z,98522.06
2022-07-29T21:05:57.287Z,98522.44
2022-07-29T21:08:24.023Z,98518.25
2022-07-29T21:10:50.794Z,98519.91
2022-07-29T21:13:18.589Z,98523.81
2022-07-29T21:15:49.154Z,98519.72
2022-07-29T21:18:32.896Z,98528.06
2022-07-29T21:21:00.933Z,98529.63
2022-07-29T21:23:28.025Z,98531.78
2022-07-29T21:25:54.824Z,98540.00
2022-07-29T21:28:27.660Z,98539.22
2022-07-29T21:30:59.404Z,98537.53
2022-07-29T21:33:28.103Z,98537.44
2022-07-29T21:38:42.019Z,98551.47
2022-07-29T21:41:12.190Z,98549.78
2022-07-29T21:43:41.737Z,98554.84
2022-07-29T21:46:09.340Z,98557.84
2022-07-29T21:48:36.015Z,98561.72
2022-07-29T21:51:02.721Z,98563.03
2022-07-29T21:53:29.384Z,98554.31
2022-07-29T21:55:57.419Z,98560.94
2022-07-29T21:58:24.673Z,98557.06
2022-07-29T22:00:52.194Z,98556.41
2022-07-29T22:03:18.963Z,98561.38
2022-07-29T22:05:45.669Z,98575.25
2022-07-29T22:08:12.919Z,98570.94
2022-07-29T22:10:39.524Z,98575.13
2022-07-29T22:13:06.554Z,98574.28
2022-07-29T22:15:33.256Z,98576.97
2022-07-29T22:18:00.428Z,98575.47
2022-07-29T22:20:27.042Z,98585.25
2022-07-29T22:22:53.995Z,98582.75
2022-07-29T22:25:21.170Z,98592.00
2022-07-29T22:27:47.865Z,98597.28
2022-07-29T22:30:14.752Z,98596.81
2022-07-29T22:32:41.939Z,98593.41
2022-07-29T22:35:08.633Z,98595.25
2022-07-29T22:37:35.555Z,98596.94
2022-07-29T22:40:02.348Z,98600.81
2022-07-29T22:42:29.029Z,98598.41
2022-07-29T22:44:55.853Z,98607.63
2022-07-29T22:47:46.242Z,98603.53
2022-07-29T22:50:09.125Z,98606.44
2022-07-29T22:52:35.731Z,98610.38
2022-07-29T22:55:03.859Z,98611.44
2022-07-29T22:57:30.465Z,98600.09
2022-07-29T22:59:57.019Z,98603.94
2022-07-29T23:02:23.733Z,98607.03
2022-07-29T23:04:50.288Z,98601.06
2022-07-29T23:07:17.537Z,98604.47
2022-07-29T23:09:44.094Z,98601.84
2022-07-29T23:12:10.673Z,98600.91
2022-07-29T23:14:37.670Z,98600.03
2022-07-29T23:17:05.177Z,98602.91
2022-07-29T23:19:32.016Z,98596.75
2022-07-29T23:21:58.802Z,98587.25
2022-07-29T23:24:25.494Z,98594.44
2022-07-29T23:26:52.098Z,98599.16
2022-07-29T23:29:18.730Z,98592.22
2022-07-29T23:31:48.134Z,98592.63
2022-07-29T23:34:15.056Z,98596.06
2022-07-29T23:36:42.288Z,98589.34
2022-07-29T23:39:13.225Z,98592.22
2022-07-29T23:41:40.001Z,98589.94
2022-07-29T23:44:06.823Z,98576.28
2022-07-29T23:46:33.763Z,98576.28
2022-07-29T23:49:00.520Z,98569.94
2022-07-29T23:51:28.973Z,98566.50
2022-07-29T23:53:55.818Z,98574.63
2022-07-29T23:56:22.611Z,98564.19
2022-07-29T23:58:49.199Z,98562.47
